createdAt,value
2018-06-23T00:00:40.711Z,1002.6
2018-06-23T00:01:41.380Z,1002.5
2018-06-23T00:02:42.046Z,1002.5
2018-06-23T00:03:42.714Z,1002.5
2018-06-23T00:04:43.379Z,1002.5
2018-06-23T00:05:44.087Z,1002.5
2018-06-23T00:06:44.712Z,1002.5
2018-06-23T00:07:45.378Z,1002.5
2018-06-23T00:08:46.081Z,1002.5
2018-06-23T00:09:46.747Z,1002.5
2018-06-23T00:10:47.416Z,1002.5
2018-06-23T00:11:48.085Z,1002.5
2018-06-23T00:12:48.755Z,1002.5
2018-06-23T00:13:49.474Z,1002.6
2018-06-23T00:14:50.140Z,1002.6
2018-06-23T00:15:50.806Z,1002.6
2018-06-23T00:16:51.472Z,1002.5
2018-06-23T00:17:52.138Z,1002.6
2018-06-23T00:18:52.809Z,1002.5
2018-06-23T00:19:53.513Z,1002.5
2018-06-23T00:20:54.181Z,1002.5
2018-06-23T00:21:54.849Z,1002.5
2018-06-23T00:22:55.515Z,1002.5
2018-06-23T00:23:56.182Z,1002.5
2018-06-23T00:24:56.849Z,1002.5
2018-06-23T00:25:57.516Z,1002.5
2018-06-23T00:26:58.184Z,1002.5
2018-06-23T00:27:58.849Z,1002.5
2018-06-23T00:28:59.517Z,1002.5
2018-06-23T00:30:00.187Z,1002.5
2018-06-23T00:31:00.885Z,1002.5
2018-06-23T00:32:01.551Z,1002.5
2018-06-23T00:33:02.221Z,1002.5
2018-06-23T00:34:02.923Z,1002.5
2018-06-23T00:35:03.589Z,1002.5
2018-06-23T00:36:04.258Z,1002.5
2018-06-23T00:37:04.926Z,1002.5
2018-06-23T00:38:05.594Z,1002.5
2018-06-23T00:39:06.260Z,1002.5
2018-06-23T00:40:06.927Z,1002.5
2018-06-23T00:41:07.595Z,1002.6
2018-06-23T00:42:08.261Z,1002.6
2018-06-23T00:43:08.927Z,1002.6
2018-06-23T00:44:09.593Z,1002.5
2018-06-23T00:45:10.259Z,1002.5
2018-06-23T00:46:10.926Z,1002.5
2018-06-23T00:47:11.594Z,1002.5
2018-06-23T00:48:12.262Z,1002.5
2018-06-23T00:49:12.930Z,1002.4
2018-06-23T00:50:13.596Z,1002.4
2018-06-23T00:51:14.262Z,1002.4
2018-06-23T00:52:14.929Z,1002.4
2018-06-23T00:53:15.596Z,1002.4
2018-06-23T00:54:16.263Z,1002.4
2018-06-23T00:55:16.930Z,1002.4
2018-06-23T00:56:17.595Z,1002.4
2018-06-23T00:57:18.262Z,1002.4
2018-06-23T00:58:18.929Z,1002.5
2018-06-23T00:59:19.599Z,1002.5
2018-06-23T01:00:20.380Z,1002.5
2018-06-23T01:01:20.933Z,1002.5
2018-06-23T01:02:21.602Z,1002.5
2018-06-23T01:03:22.268Z,1002.5
2018-06-23T01:04:22.933Z,1002.5
2018-06-23T01:05:23.601Z,1002.5
2018-06-23T01:06:24.267Z,1002.5
2018-06-23T01:07:24.939Z,1002.5
2018-06-23T01:08:25.600Z,1002.5
2018-06-23T01:09:26.304Z,1002.5
2018-06-23T01:10:26.970Z,1002.5
2018-06-23T01:11:27.637Z,1002.5
2018-06-23T01:12:28.305Z,1002.4
2018-06-23T01:13:28.974Z,1002.4
2018-06-23T01:14:29.639Z,1002.5
2018-06-23T01:15:30.306Z,1002.4
2018-06-23T01:16:30.974Z,1002.4
2018-06-23T01:17:31.641Z,1002.5
2018-06-23T01:18:32.308Z,1002.5
2018-06-23T01:19:32.980Z,1002.4
2018-06-23T01:20:33.641Z,1002.4
2018-06-23T01:21:34.342Z,1002.4
2018-06-23T01:22:34.973Z,1002.5
2018-06-23T01:23:35.642Z,1002.4
2018-06-23T01:24:36.310Z,1002.4
2018-06-23T01:25:36.977Z,1002.4
2018-06-23T01:26:37.646Z,1002.5
2018-06-23T01:27:38.313Z,1002.4
2018-06-23T01:28:38.979Z,1002.4
2018-06-23T01:29:39.646Z,1002.4
2018-06-23T01:30:40.312Z,1002.4
2018-06-23T01:31:40.979Z,1002.4
2018-06-23T01:32:41.645Z,1002.4
2018-06-23T01:33:42.311Z,1002.4
2018-06-23T01:34:42.980Z,1002.4
2018-06-23T01:35:43.648Z,1002.4
2018-06-23T01:36:44.316Z,1002.4
2018-06-23T01:37:44.985Z,1002.3
2018-06-23T01:38:45.649Z,1002.3
2018-06-23T01:39:46.315Z,1002.3
2018-06-23T01:40:46.981Z,1002.3
2018-06-23T01:41:47.648Z,1002.3
2018-06-23T01:42:48.317Z,1002.3
2018-06-23T01:43:48.980Z,1002.3
2018-06-23T01:44:49.647Z,1002.4
2018-06-23T01:45:50.313Z,1002.3
2018-06-23T01:46:50.981Z,1002.3
2018-06-23T01:47:51.650Z,1002.4
2018-06-23T01:48:52.314Z,1002.3
2018-06-23T01:49:52.981Z,1002.4
2018-06-23T01:50:53.648Z,1002.3
2018-06-23T01:51:54.315Z,1002.3
2018-06-23T01:52:54.982Z,1002.3
2018-06-23T01:53:55.650Z,1002.4
2018-06-23T01:54:56.314Z,1002.3
2018-06-23T01:55:56.981Z,1002.3
2018-06-23T01:56:57.646Z,1002.3
2018-06-23T01:57:58.315Z,1002.3
2018-06-23T01:58:59.009Z,1002.3
2018-06-23T01:59:59.762Z,1002.4
2018-06-23T02:01:00.428Z,1002.3
2018-06-23T02:02:01.096Z,1002.4
2018-06-23T02:03:01.764Z,1002.3
2018-06-23T02:04:02.432Z,1002.3
2018-06-23T02:05:03.135Z,1002.3
2018-06-23T02:06:03.803Z,1002.3
2018-06-23T02:07:04.505Z,1002.3
2018-06-23T02:08:05.171Z,1002.3
2018-06-23T02:09:05.838Z,1002.2
2018-06-23T02:10:06.511Z,1002.2
2018-06-23T02:11:07.173Z,1002.3
2018-06-23T02:12:07.876Z,1002.2
2018-06-23T02:13:08.542Z,1002.2
2018-06-23T02:14:09.208Z,1002.2
2018-06-23T02:15:09.925Z,1002.2
2018-06-23T02:16:10.592Z,1002.2
2018-06-23T02:17:11.259Z,1002.2
2018-06-23T02:18:11.924Z,1002.2
2018-06-23T02:19:12.591Z,1002.2
2018-06-23T02:20:13.257Z,1002.3
2018-06-23T02:21:13.924Z,1002.2
2018-06-23T02:22:14.590Z,1002.2
2018-06-23T02:23:15.256Z,1002.2
2018-06-23T02:24:15.922Z,1002.2
2018-06-23T02:25:16.588Z,1002.2
2018-06-23T02:26:17.255Z,1002.2
2018-06-23T02:27:17.922Z,1002.2
2018-06-23T02:28:18.589Z,1002.2
2018-06-23T02:29:19.257Z,1002.2
2018-06-23T02:30:19.928Z,1002.2
2018-06-23T02:31:20.590Z,1002.2
2018-06-23T02:32:21.256Z,1002.3
2018-06-23T02:33:21.924Z,1002.2
2018-06-23T02:34:22.590Z,1002.2
2018-06-23T02:35:23.256Z,1002.2
2018-06-23T02:36:23.921Z,1002.3
2018-06-23T02:37:24.587Z,1002.2
2018-06-23T02:38:25.255Z,1002.2
2018-06-23T02:39:25.923Z,1002.3
2018-06-23T02:40:26.590Z,1002.3
2018-06-23T02:41:27.264Z,1002.3
2018-06-23T02:42:27.924Z,1002.3
2018-06-23T02:43:28.591Z,1002.3
2018-06-23T02:44:29.260Z,1002.3
2018-06-23T02:45:29.926Z,1002.3
2018-06-23T02:46:30.593Z,1002.3
2018-06-23T02:47:31.262Z,1002.3
2018-06-23T02:48:31.930Z,1002.3
2018-06-23T02:49:32.599Z,1002.3
2018-06-23T02:50:33.265Z,1002.3
2018-06-23T02:51:33.935Z,1002.3
2018-06-23T02:52:34.638Z,1002.2
2018-06-23T02:53:35.316Z,1002.2
2018-06-23T02:54:35.975Z,1002.3
2018-06-23T02:55:36.641Z,1002.2
2018-06-23T02:56:37.307Z,1002.3
2018-06-23T02:57:38.013Z,1002.2
2018-06-23T02:58:38.684Z,1002.3
2018-06-23T02:59:39.353Z,1002.3
2018-06-23T03:00:40.055Z,1002.3
2018-06-23T03:01:40.735Z,1002.3
2018-06-23T03:02:41.394Z,1002.3
2018-06-23T03:03:42.058Z,1002.3
2018-06-23T03:04:42.731Z,1002.3
2018-06-23T03:05:43.396Z,1002.3
2018-06-23T03:06:44.062Z,1002.3
2018-06-23T03:07:44.728Z,1002.3
2018-06-23T03:08:45.396Z,1002.3
2018-06-23T03:09:46.065Z,1002.3
2018-06-23T03:10:46.736Z,1002.3
2018-06-23T03:11:47.403Z,1002.3
2018-06-23T03:12:48.070Z,1002.3
2018-06-23T03:13:48.737Z,1002.2
2018-06-23T03:14:49.407Z,1002.3
2018-06-23T03:15:50.112Z,1002.3
2018-06-23T03:16:50.781Z,1002.3
2018-06-23T03:17:51.450Z,1002.3
2018-06-23T03:18:52.117Z,1002.3
2018-06-23T03:19:52.791Z,1002.2
2018-06-23T03:20:53.497Z,1002.2
2018-06-23T03:21:54.177Z,1002.2
2018-06-23T03:22:54.872Z,1002.3
2018-06-23T03:23:55.541Z,1002.3
2018-06-23T03:24:56.212Z,1002.3
2018-06-23T03:25:56.929Z,1002.3
2018-06-23T03:26:57.601Z,1002.3
2018-06-23T03:27:58.272Z,1002.3
2018-06-23T03:28:58.944Z,1002.3
2018-06-23T03:29:59.611Z,1002.4
2018-06-23T03:31:00.281Z,1002.3
2018-06-23T03:32:00.950Z,1002.4
2018-06-23T03:33:01.627Z,1002.4
2018-06-23T03:34:02.294Z,1002.4
2018-06-23T03:35:02.965Z,1002.4
2018-06-23T03:36:03.636Z,1002.4
2018-06-23T03:37:04.306Z,1002.4
2018-06-23T03:38:04.975Z,1002.4
2018-06-23T03:39:05.647Z,1002.4
2018-06-23T03:40:06.321Z,1002.3
2018-06-23T03:41:06.987Z,1002.4
2018-06-23T03:42:07.658Z,1002.4
2018-06-23T03:43:08.328Z,1002.3
2018-06-23T03:44:08.996Z,1002.4
2018-06-23T03:45:09.684Z,1002.3
2018-06-23T03:46:10.340Z,1002.4
2018-06-23T03:47:11.010Z,1002.4
2018-06-23T03:48:11.680Z,1002.3
2018-06-23T03:49:12.350Z,1002.3
2018-06-23T03:50:13.020Z,1002.3
2018-06-23T03:51:13.691Z,1002.3
2018-06-23T03:52:14.362Z,1002.3
2018-06-23T03:53:15.033Z,1002.3
2018-06-23T03:54:15.703Z,1002.2
2018-06-23T03:55:16.373Z,1002.3
2018-06-23T03:56:17.042Z,1002.3
2018-06-23T03:57:17.713Z,1002.3
2018-06-23T03:58:18.387Z,1002.3
2018-06-23T03:59:19.095Z,1002.3
2018-06-23T04:00:19.765Z,1002.2
2018-06-23T04:01:20.436Z,1002.2
2018-06-23T04:02:21.107Z,1002.2
2018-06-23T04:03:21.780Z,1002.3
2018-06-23T04:04:22.450Z,1002.3
2018-06-23T04:05:23.122Z,1002.3
2018-06-23T04:06:23.793Z,1002.2
2018-06-23T04:07:24.466Z,1002.3
2018-06-23T04:08:25.135Z,1002.3
2018-06-23T04:09:25.808Z,1002.3
2018-06-23T04:10:26.479Z,1002.3
2018-06-23T04:11:27.162Z,1002.3
2018-06-23T04:12:27.822Z,1002.3
2018-06-23T04:13:28.494Z,1002.3
2018-06-23T04:14:29.165Z,1002.3
2018-06-23T04:15:29.837Z,1002.3
2018-06-23T04:16:30.548Z,1002.3
2018-06-23T04:17:31.219Z,1002.3
2018-06-23T04:18:31.890Z,1002.3
2018-06-23T04:19:32.563Z,1002.3
2018-06-23T04:20:33.235Z,1002.3
2018-06-23T04:21:33.908Z,1002.3
2018-06-23T04:22:34.583Z,1002.3
2018-06-23T04:23:35.287Z,1002.3
2018-06-23T04:24:35.962Z,1002.3
2018-06-23T04:25:36.630Z,1002.4
2018-06-23T04:26:37.301Z,1002.4
2018-06-23T04:27:37.977Z,1002.4
2018-06-23T04:28:38.647Z,1002.4
2018-06-23T04:29:39.321Z,1002.4
2018-06-23T04:30:39.991Z,1002.4
2018-06-23T04:31:40.663Z,1002.3
2018-06-23T04:32:41.340Z,1002.4
2018-06-23T04:33:42.008Z,1002.4
2018-06-23T04:34:42.680Z,1002.4
2018-06-23T04:35:43.390Z,1002.5
2018-06-23T04:36:44.062Z,1002.4
2018-06-23T04:37:44.734Z,1002.5
2018-06-23T04:38:45.413Z,1002.5
2018-06-23T04:39:46.077Z,1002.5
2018-06-23T04:40:46.750Z,1002.5
2018-06-23T04:41:47.424Z,1002.4
2018-06-23T04:42:48.096Z,1002.5
2018-06-23T04:43:48.774Z,1002.5
2018-06-23T04:44:49.443Z,1002.5
2018-06-23T04:45:50.117Z,1002.5
2018-06-23T04:46:50.790Z,1002.5
2018-06-23T04:47:51.462Z,1002.5
2018-06-23T04:48:52.137Z,1002.5
2018-06-23T04:49:52.810Z,1002.5
2018-06-23T04:50:53.484Z,1002.5
2018-06-23T04:51:54.156Z,1002.5
2018-06-23T04:52:54.830Z,1002.5
2018-06-23T04:53:55.504Z,1002.5
2018-06-23T04:54:56.178Z,1002.5
2018-06-23T04:55:56.852Z,1002.5
2018-06-23T04:56:57.525Z,1002.5
2018-06-23T04:57:58.231Z,1002.5
2018-06-23T04:58:58.873Z,1002.5
2018-06-23T04:59:59.545Z,1002.6
2018-06-23T05:01:00.222Z,1002.6
2018-06-23T05:02:00.894Z,1002.6
2018-06-23T05:03:01.607Z,1002.5
2018-06-23T05:04:02.281Z,1002.5
2018-06-23T05:05:02.955Z,1002.6
2018-06-23T05:06:03.629Z,1002.5
2018-06-23T05:07:04.301Z,1002.5
2018-06-23T05:08:04.975Z,1002.5
2018-06-23T05:09:05.650Z,1002.5
2018-06-23T05:10:06.323Z,1002.5
2018-06-23T05:11:06.996Z,1002.4
2018-06-23T05:12:07.669Z,1002.4
2018-06-23T05:13:08.344Z,1002.5
2018-06-23T05:14:09.023Z,1002.4
2018-06-23T05:15:09.694Z,1002.5
2018-06-23T05:16:10.364Z,1002.4
2018-06-23T05:17:11.077Z,1002.3
2018-06-23T05:18:11.753Z,1002.3
2018-06-23T05:19:12.465Z,1002.3
2018-06-23T05:20:13.175Z,1002.3
2018-06-23T05:21:13.814Z,1002.4
2018-06-23T05:22:14.486Z,1002.4
2018-06-23T05:23:15.164Z,1002.4
2018-06-23T05:24:15.837Z,1002.4
2018-06-23T05:25:16.511Z,1002.4
2018-06-23T05:26:17.185Z,1002.4
2018-06-23T05:27:17.859Z,1002.4
2018-06-23T05:28:18.534Z,1002.4
2018-06-23T05:29:19.207Z,1002.4
2018-06-23T05:30:19.884Z,1002.4
2018-06-23T05:31:20.557Z,1002.5
2018-06-23T05:32:21.230Z,1002.4
2018-06-23T05:33:21.907Z,1002.4
2018-06-23T05:34:22.580Z,1002.4
2018-06-23T05:35:23.255Z,1002.4
2018-06-23T05:36:23.929Z,1002.4
2018-06-23T05:37:24.606Z,1002.4
2018-06-23T05:38:25.280Z,1002.4
2018-06-23T05:39:25.954Z,1002.4
2018-06-23T05:40:26.628Z,1002.4
2018-06-23T05:41:27.302Z,1002.4
2018-06-23T05:42:27.978Z,1002.4
2018-06-23T05:43:28.655Z,1002.3
2018-06-23T05:44:29.331Z,1002.4
2018-06-23T05:45:30.007Z,1002.4
2018-06-23T05:46:30.718Z,1002.4
2018-06-23T05:47:31.394Z,1002.4
2018-06-23T05:48:32.069Z,1002.4
2018-06-23T05:49:32.748Z,1002.3
2018-06-23T05:50:33.421Z,1002.4
2018-06-23T05:51:34.096Z,1002.4
2018-06-23T05:52:34.771Z,1002.3
2018-06-23T05:53:35.446Z,1002.2
2018-06-23T05:54:36.120Z,1002.3
2018-06-23T05:55:36.794Z,1002.3
2018-06-23T05:56:37.470Z,1002.3
2018-06-23T05:57:38.147Z,1002.3
2018-06-23T05:58:38.821Z,1002.4
2018-06-23T05:59:39.495Z,1002.4
2018-06-23T06:00:40.180Z,1002.4
2018-06-23T06:01:40.883Z,1002.4
2018-06-23T06:02:41.559Z,1002.4
2018-06-23T06:03:42.233Z,1002.4
2018-06-23T06:04:42.907Z,1002.4
2018-06-23T06:05:43.582Z,1002.4
2018-06-23T06:06:44.260Z,1002.4
2018-06-23T06:07:44.935Z,1002.4
2018-06-23T06:08:45.610Z,1002.3
2018-06-23T06:09:46.285Z,1002.4
2018-06-23T06:10:46.961Z,1002.4
2018-06-23T06:11:47.692Z,1002.5
2018-06-23T06:12:48.343Z,1002.5
2018-06-23T06:13:49.019Z,1002.4
2018-06-23T06:14:49.696Z,1002.4
2018-06-23T06:15:50.370Z,1002.4
2018-06-23T06:16:51.046Z,1002.4
2018-06-23T06:17:51.722Z,1002.3
2018-06-23T06:18:52.397Z,1002.4
2018-06-23T06:19:53.073Z,1002.3
2018-06-23T06:20:53.748Z,1002.4
2018-06-23T06:21:54.424Z,1002.4
2018-06-23T06:22:55.100Z,1002.4
2018-06-23T06:23:55.776Z,1002.5
2018-06-23T06:24:56.448Z,1002.4
2018-06-23T06:25:57.127Z,1002.4
2018-06-23T06:26:57.805Z,1002.4
2018-06-23T06:27:58.476Z,1002.3
2018-06-23T06:28:59.150Z,1002.3
2018-06-23T06:29:59.825Z,1002.3
2018-06-23T06:31:00.503Z,1002.3
2018-06-23T06:32:01.178Z,1002.4
2018-06-23T06:33:01.909Z,1002.5
2018-06-23T06:34:02.623Z,1002.4
2018-06-23T06:35:03.297Z,1002.4
2018-06-23T06:36:03.971Z,1002.4
2018-06-23T06:37:04.646Z,1002.3
2018-06-23T06:38:05.324Z,1002.3
2018-06-23T06:39:05.997Z,1002.3
2018-06-23T06:40:06.674Z,1002.3
2018-06-23T06:41:07.348Z,1002.3
2018-06-23T06:42:08.059Z,1002.3
2018-06-23T06:43:08.735Z,1002.3
2018-06-23T06:44:09.411Z,1002.3
2018-06-23T06:45:10.094Z,1002.3
2018-06-23T06:46:10.799Z,1002.4
2018-06-23T06:47:11.474Z,1002.4
2018-06-23T06:48:12.169Z,1002.3
2018-06-23T06:49:12.865Z,1002.4
2018-06-23T06:50:13.539Z,1002.4
2018-06-23T06:51:14.256Z,1002.3
2018-06-23T06:52:14.930Z,1002.3
2018-06-23T06:53:15.608Z,1002.4
2018-06-23T06:54:16.316Z,1002.3
2018-06-23T06:55:16.991Z,1002.5
2018-06-23T06:56:17.704Z,1002.4
2018-06-23T06:57:18.378Z,1002.5
2018-06-23T06:58:19.053Z,1002.5
2018-06-23T06:59:19.727Z,1002.5
2018-06-23T07:00:20.402Z,1002.5
2018-06-23T07:01:21.075Z,1002.5
2018-06-23T07:02:21.749Z,1002.4
2018-06-23T07:03:22.446Z,1002.4
2018-06-23T07:04:23.098Z,1002.5
2018-06-23T07:05:23.769Z,1002.5
2018-06-23T07:06:24.444Z,1002.5
2018-06-23T07:07:25.118Z,1002.5
2018-06-23T07:08:25.791Z,1002.5
2018-06-23T07:09:26.465Z,1002.5
2018-06-23T07:10:27.138Z,1002.5
2018-06-23T07:11:27.814Z,1002.5
2018-06-23T07:12:28.488Z,1002.4
2018-06-23T07:13:29.161Z,1002.4
2018-06-23T07:14:29.836Z,1002.5
2018-06-23T07:15:30.549Z,1002.5
2018-06-23T07:16:31.183Z,1002.4
2018-06-23T07:17:31.891Z,1002.4
2018-06-23T07:18:32.531Z,1002.4
2018-06-23T07:19:33.204Z,1002.4
2018-06-23T07:20:33.877Z,1002.5
2018-06-23T07:21:34.553Z,1002.4
2018-06-23T07:22:35.227Z,1002.4
2018-06-23T07:23:35.978Z,1002.5
2018-06-23T07:24:36.576Z,1002.4
2018-06-23T07:25:37.250Z,1002.5
2018-06-23T07:26:37.926Z,1002.4
2018-06-23T07:27:38.603Z,1002.5
2018-06-23T07:28:39.272Z,1002.5
2018-06-23T07:29:39.947Z,1002.4
2018-06-23T07:30:40.676Z,1002.5
2018-06-23T07:31:41.293Z,1002.4
2018-06-23T07:32:41.968Z,1002.4
2018-06-23T07:33:42.644Z,1002.5
2018-06-23T07:34:43.335Z,1002.5
2018-06-23T07:35:43.987Z,1002.4
2018-06-23T07:36:44.660Z,1002.5
2018-06-23T07:37:45.333Z,1002.4
2018-06-23T07:38:46.008Z,1002.5
2018-06-23T07:39:46.688Z,1002.5
2018-06-23T07:40:47.366Z,1002.5
2018-06-23T07:41:48.033Z,1002.5
2018-06-23T07:42:48.703Z,1002.5
2018-06-23T07:43:49.374Z,1002.5
2018-06-23T07:44:50.047Z,1002.4
2018-06-23T07:45:50.722Z,1002.5
2018-06-23T07:46:51.398Z,1002.4
2018-06-23T07:47:52.070Z,1002.4
2018-06-23T07:48:52.781Z,1002.5
2018-06-23T07:49:53.453Z,1002.4
2018-06-23T07:50:54.125Z,1002.4
2018-06-23T07:51:54.799Z,1002.4
2018-06-23T07:52:55.472Z,1002.4
2018-06-23T07:53:56.149Z,1002.4
2018-06-23T07:54:56.820Z,1002.4
2018-06-23T07:55:57.494Z,1002.4
2018-06-23T07:56:58.169Z,1002.4
2018-06-23T07:57:58.865Z,1002.4
2018-06-23T07:58:59.553Z,1002.4
2018-06-23T08:00:00.228Z,1002.4
2018-06-23T08:01:00.901Z,1002.4
2018-06-23T08:02:01.576Z,1002.4
2018-06-23T08:03:02.293Z,1002.4
2018-06-23T08:04:03.016Z,1002.4
2018-06-23T08:05:03.688Z,1002.4
2018-06-23T08:06:04.366Z,1002.4
2018-06-23T08:07:05.040Z,1002.4
2018-06-23T08:08:05.714Z,1002.4
2018-06-23T08:09:06.388Z,1002.4
2018-06-23T08:10:07.066Z,1002.4
2018-06-23T08:11:07.739Z,1002.4
2018-06-23T08:12:08.412Z,1002.4
2018-06-23T08:13:09.084Z,1002.3
2018-06-23T08:14:09.758Z,1002.4
2018-06-23T08:15:10.433Z,1002.3
2018-06-23T08:16:11.106Z,1002.4
2018-06-23T08:17:11.781Z,1002.3
2018-06-23T08:18:12.454Z,1002.3
2018-06-23T08:19:13.128Z,1002.3
2018-06-23T08:20:13.803Z,1002.4
2018-06-23T08:21:14.477Z,1002.3
2018-06-23T08:22:15.152Z,1002.3
2018-06-23T08:23:15.827Z,1002.3
2018-06-23T08:24:16.501Z,1002.4
2018-06-23T08:25:17.179Z,1002.4
2018-06-23T08:26:17.879Z,1002.4
2018-06-23T08:27:18.524Z,1002.4
2018-06-23T08:28:19.199Z,1002.4
2018-06-23T08:29:19.913Z,1002.4
2018-06-23T08:30:20.586Z,1002.4
2018-06-23T08:31:21.297Z,1002.4
2018-06-23T08:32:21.971Z,1002.4
2018-06-23T08:33:22.645Z,1002.4
2018-06-23T08:34:23.317Z,1002.4
2018-06-23T08:35:23.992Z,1002.4
2018-06-23T08:36:24.666Z,1002.4
2018-06-23T08:37:25.341Z,1002.4
2018-06-23T08:38:26.014Z,1002.3
2018-06-23T08:39:26.687Z,1002.4
2018-06-23T08:40:27.363Z,1002.4
2018-06-23T08:41:28.039Z,1002.4
2018-06-23T08:42:28.712Z,1002.4
2018-06-23T08:43:29.385Z,1002.4
2018-06-23T08:44:30.060Z,1002.5
2018-06-23T08:45:30.736Z,1002.4
2018-06-23T08:46:31.410Z,1002.4
2018-06-23T08:47:32.084Z,1002.5
2018-06-23T08:48:32.758Z,1002.5
2018-06-23T08:49:33.433Z,1002.4
2018-06-23T08:50:34.106Z,1002.4
2018-06-23T08:51:34.781Z,1002.4
2018-06-23T08:52:35.457Z,1002.4
2018-06-23T08:53:36.129Z,1002.5
2018-06-23T08:54:36.805Z,1002.4
2018-06-23T08:55:37.478Z,1002.4
2018-06-23T08:56:38.152Z,1002.5
2018-06-23T08:57:38.826Z,1002.4
2018-06-23T08:58:39.500Z,1002.4
2018-06-23T08:59:40.177Z,1002.4
2018-06-23T09:00:40.852Z,1002.4
2018-06-23T09:01:41.610Z,1002.4
2018-06-23T09:02:42.248Z,1002.4
2018-06-23T09:03:42.909Z,1002.4
2018-06-23T09:04:43.584Z,1002.4
2018-06-23T09:05:44.257Z,1002.4
2018-06-23T09:06:44.932Z,1002.4
2018-06-23T09:07:45.605Z,1002.4
2018-06-23T09:08:46.277Z,1002.3
2018-06-23T09:09:46.953Z,1002.3
2018-06-23T09:10:47.625Z,1002.3
2018-06-23T09:11:48.298Z,1002.4
2018-06-23T09:12:48.975Z,1002.4
2018-06-23T09:13:49.646Z,1002.4
2018-06-23T09:14:50.322Z,1002.4
2018-06-23T09:15:50.995Z,1002.3
2018-06-23T09:16:51.709Z,1002.3
2018-06-23T09:17:52.408Z,1002.4
2018-06-23T09:18:53.113Z,1002.3
2018-06-23T09:19:53.756Z,1002.3
2018-06-23T09:20:54.433Z,1002.3
2018-06-23T09:21:55.147Z,1002.3
2018-06-23T09:22:55.820Z,1002.3
2018-06-23T09:23:56.495Z,1002.3
2018-06-23T09:24:57.168Z,1002.3
2018-06-23T09:25:57.916Z,1002.3
2018-06-23T09:26:58.521Z,1002.3
2018-06-23T09:27:59.191Z,1002.4
2018-06-23T09:28:59.869Z,1002.4
2018-06-23T09:30:00.540Z,1002.3
2018-06-23T09:31:01.215Z,1002.3
2018-06-23T09:32:01.895Z,1002.3
2018-06-23T09:33:02.564Z,1002.3
2018-06-23T09:34:03.239Z,1002.4
2018-06-23T09:35:03.912Z,1002.4
2018-06-23T09:36:04.588Z,1002.3
2018-06-23T09:37:05.263Z,1002.3
2018-06-23T09:38:05.944Z,1002.3
2018-06-23T09:39:06.650Z,1002.4
2018-06-23T09:40:07.323Z,1002.3
2018-06-23T09:41:07.999Z,1002.3
2018-06-23T09:42:08.675Z,1002.3
2018-06-23T09:43:09.350Z,1002.3
2018-06-23T09:44:10.024Z,1002.3
2018-06-23T09:45:10.698Z,1002.3
2018-06-23T09:46:11.451Z,1002.4
2018-06-23T09:47:12.050Z,1002.4
2018-06-23T09:48:12.724Z,1002.4
2018-06-23T09:49:13.400Z,1002.4
2018-06-23T09:50:14.074Z,1002.3
2018-06-23T09:51:14.750Z,1002.4
2018-06-23T09:52:15.424Z,1002.4
2018-06-23T09:53:16.097Z,1002.4
2018-06-23T09:54:16.772Z,1002.4
2018-06-23T09:55:17.448Z,1002.4
2018-06-23T09:56:18.122Z,1002.4
2018-06-23T09:57:18.797Z,1002.4
2018-06-23T09:58:19.472Z,1002.3
2018-06-23T09:59:20.145Z,1002.3
2018-06-23T10:00:20.820Z,1002.3
2018-06-23T10:01:21.494Z,1002.3
2018-06-23T10:02:22.169Z,1002.3
2018-06-23T10:03:22.848Z,1002.3
2018-06-23T10:04:23.521Z,1002.3
2018-06-23T10:05:24.196Z,1002.2
2018-06-23T10:06:24.873Z,1002.2
2018-06-23T10:07:25.549Z,1002.2
2018-06-23T10:08:26.236Z,1002.2
2018-06-23T10:09:26.941Z,1002.2
2018-06-23T10:10:27.621Z,1002.3
2018-06-23T10:11:28.294Z,1002.2
2018-06-23T10:12:28.973Z,1002.4
2018-06-23T10:13:29.649Z,1002.3
2018-06-23T10:14:30.326Z,1002.3
2018-06-23T10:15:31.063Z,1002.4
2018-06-23T10:16:31.685Z,1002.3
2018-06-23T10:17:32.360Z,1002.3
2018-06-23T10:18:33.076Z,1002.3
2018-06-23T10:19:33.757Z,1002.3
2018-06-23T10:20:34.483Z,1002.3
2018-06-23T10:21:35.195Z,1002.4
2018-06-23T10:22:35.841Z,1002.4
2018-06-23T10:23:36.518Z,1002.3
2018-06-23T10:24:37.252Z,1002.3
2018-06-23T10:25:37.871Z,1002.3
2018-06-23T10:26:38.548Z,1002.4
2018-06-23T10:27:39.226Z,1002.3
2018-06-23T10:28:39.902Z,1002.4
2018-06-23T10:29:40.579Z,1002.4
2018-06-23T10:30:41.258Z,1002.3
2018-06-23T10:31:41.935Z,1002.5
2018-06-23T10:32:42.614Z,1002.4
2018-06-23T10:33:43.292Z,1002.4
2018-06-23T10:34:44.012Z,1002.3
2018-06-23T10:35:44.687Z,1002.3
2018-06-23T10:36:45.366Z,1002.4
2018-06-23T10:37:46.045Z,1002.3
2018-06-23T10:38:46.785Z,1002.5
2018-06-23T10:39:47.398Z,1002.4
2018-06-23T10:40:48.074Z,1002.4
2018-06-23T10:41:48.751Z,1002.4
2018-06-23T10:42:49.428Z,1002.4
2018-06-23T10:43:50.105Z,1002.4
2018-06-23T10:44:50.782Z,1002.4
2018-06-23T10:45:51.465Z,1002.4
2018-06-23T10:46:52.138Z,1002.4
2018-06-23T10:47:52.811Z,1002.4
2018-06-23T10:48:53.489Z,1002.4
2018-06-23T10:49:54.167Z,1002.4
2018-06-23T10:50:54.844Z,1002.4
2018-06-23T10:51:55.520Z,1002.4
2018-06-23T10:52:56.196Z,1002.4
2018-06-23T10:53:56.876Z,1002.4
2018-06-23T10:54:57.550Z,1002.4
2018-06-23T10:55:58.227Z,1002.4
2018-06-23T10:56:58.903Z,1002.4
2018-06-23T10:57:59.579Z,1002.3
2018-06-23T10:59:00.258Z,1002.3
2018-06-23T11:00:00.934Z,1002.3
2018-06-23T11:01:01.610Z,1002.4
2018-06-23T11:02:02.286Z,1002.4
2018-06-23T11:03:02.963Z,1002.4
2018-06-23T11:04:03.639Z,1002.4
2018-06-23T11:05:04.316Z,1002.4
2018-06-23T11:06:04.994Z,1002.5
2018-06-23T11:07:05.668Z,1002.4
2018-06-23T11:08:06.348Z,1002.4
2018-06-23T11:09:07.020Z,1002.4
2018-06-23T11:10:07.697Z,1002.4
2018-06-23T11:11:08.373Z,1002.4
2018-06-23T11:12:09.048Z,1002.4
2018-06-23T11:13:09.725Z,1002.4
2018-06-23T11:14:10.400Z,1002.4
2018-06-23T11:15:11.076Z,1002.4
2018-06-23T11:16:11.752Z,1002.4
2018-06-23T11:17:12.428Z,1002.4
2018-06-23T11:18:13.107Z,1002.5
2018-06-23T11:19:13.780Z,1002.5
2018-06-23T11:20:14.456Z,1002.4
2018-06-23T11:21:15.132Z,1002.5
2018-06-23T11:22:15.808Z,1002.5
2018-06-23T11:23:16.484Z,1002.5
2018-06-23T11:24:17.225Z,1002.5
2018-06-23T11:25:17.833Z,1002.5
2018-06-23T11:26:18.507Z,1002.5
2018-06-23T11:27:19.184Z,1002.5
2018-06-23T11:28:19.858Z,1002.4
2018-06-23T11:29:20.534Z,1002.5
2018-06-23T11:30:21.208Z,1002.5
2018-06-23T11:31:21.883Z,1002.5
2018-06-23T11:32:22.559Z,1002.5
2018-06-23T11:33:23.272Z,1002.5
2018-06-23T11:34:23.947Z,1002.5
2018-06-23T11:35:24.621Z,1002.5
2018-06-23T11:36:25.295Z,1002.5
2018-06-23T11:37:25.971Z,1002.5
2018-06-23T11:38:26.646Z,1002.5
2018-06-23T11:39:27.320Z,1002.5
2018-06-23T11:40:27.995Z,1002.5
2018-06-23T11:41:28.669Z,1002.5
2018-06-23T11:42:29.345Z,1002.4
2018-06-23T11:43:30.021Z,1002.4
2018-06-23T11:44:30.698Z,1002.4
2018-06-23T11:45:31.375Z,1002.4
2018-06-23T11:46:32.084Z,1002.5
2018-06-23T11:47:32.730Z,1002.4
2018-06-23T11:48:33.405Z,1002.4
2018-06-23T11:49:34.081Z,1002.4
2018-06-23T11:50:34.758Z,1002.5
2018-06-23T11:51:35.472Z,1002.5
2018-06-23T11:52:36.150Z,1002.5
2018-06-23T11:53:36.824Z,1002.5
2018-06-23T11:54:37.499Z,1002.4
2018-06-23T11:55:38.176Z,1002.4
2018-06-23T11:56:38.852Z,1002.4
2018-06-23T11:57:39.529Z,1002.4
2018-06-23T11:58:40.206Z,1002.5
2018-06-23T11:59:40.884Z,1002.5
2018-06-23T12:00:41.558Z,1002.4
2018-06-23T12:01:42.247Z,1002.5
2018-06-23T12:02:42.948Z,1002.4
2018-06-23T12:03:43.623Z,1002.4
2018-06-23T12:04:44.299Z,1002.4
2018-06-23T12:05:44.980Z,1002.4
2018-06-23T12:06:45.652Z,1002.4
2018-06-23T12:07:46.329Z,1002.4
2018-06-23T12:08:47.004Z,1002.4
2018-06-23T12:09:47.683Z,1002.3
2018-06-23T12:10:48.359Z,1002.3
2018-06-23T12:11:49.090Z,1002.3
2018-06-23T12:12:49.801Z,1002.3
2018-06-23T12:13:50.524Z,1002.3
2018-06-23T12:14:51.195Z,1002.3
2018-06-23T12:15:51.872Z,1002.2
2018-06-23T12:16:52.548Z,1002.2
2018-06-23T12:17:53.230Z,1002.2
2018-06-23T12:18:53.903Z,1002.3
2018-06-23T12:19:54.582Z,1002.3
2018-06-23T12:20:55.259Z,1002.3
2018-06-23T12:21:55.937Z,1002.3
2018-06-23T12:22:56.616Z,1002.3
2018-06-23T12:23:57.294Z,1002.2
2018-06-23T12:24:57.970Z,1002.2
2018-06-23T12:25:58.648Z,1002.2
2018-06-23T12:26:59.327Z,1002.1
2018-06-23T12:28:00.008Z,1002.1
2018-06-23T12:29:00.724Z,1002.1
2018-06-23T12:30:01.404Z,1002.1
2018-06-23T12:31:02.122Z,1002.0
2018-06-23T12:32:02.801Z,1002.0
2018-06-23T12:33:03.479Z,1002.0
2018-06-23T12:34:04.157Z,1002.0
2018-06-23T12:35:04.838Z,1002.0
2018-06-23T12:36:05.516Z,1001.9
2018-06-23T12:37:06.197Z,1002.0